KGCK/GCK METAR and TAF weather

Enter ICAO airport designator
Station Type Date Time Source
KGCK METAR 2022/05/24 10:54 UTC NOAA

KGCK 241054Z AUTO 03015KT 4SM -RA OVC004 08/ A2992 RMK AO2 SLP124 P0000 T0083 $


Station Type Date Time Source
KGCK Decoded METAR 2022/05/24 10:54 UTC NOAA

GARDEN CITY REGIONAL AIRPORT, KS, United States (KGCK) 37-55N 100-43W 877M
May 24, 2022 - 06:54 AM EDT / 2022.05.24 1054 UTC
Wind: from the NNE (030 degrees) at 17 MPH (15 KT):0
Visibility: 4 mile(s):0
Sky conditions: overcast
Weather: light rain
Precipitation last hour: A trace
Temperature: 46 F (8 C)
Pressure (altimeter): 29.92 in. Hg (1013 hPa)
ob: KGCK 241054Z AUTO 03015KT 4SM -RA OVC004 08/ A2992 RMK AO2 SLP124 P0000 T0083
cycle: 11

Station Type Date Time Source
KGCK TAF 2022/05/24 12:24 UTC NOAA

TAF KGCK 241121Z 2412/2512 04010KT 4SM -RA OVC004
FM241800 02015G25KT 2SM -SHRA BR OVC005
FM250000 36012KT P6SM OVC006

Example: see airport list